sensor_id;sensor_type;location;lat;lon;timestamp;temperature;humidity
34640;DHT22;22600;48.186;11.526;2023-06-14T00:02:17;25.20;44.00
34640;DHT22;22600;48.186;11.526;2023-06-14T00:04:42;25.20;44.20
34640;DHT22;22600;48.186;11.526;2023-06-14T00:07:08;25.20;44.20
34640;DHT22;22600;48.186;11.526;2023-06-14T00:09:34;25.20;44.20
34640;DHT22;22600;48.186;11.526;2023-06-14T00:11:59;25.20;44.40
34640;DHT22;22600;48.186;11.526;2023-06-14T00:14:25;25.20;44.50
34640;DHT22;22600;48.186;11.526;2023-06-14T00:16:50;25.30;44.50
34640;DHT22;22600;48.186;11.526;2023-06-14T00:19:18;25.20;44.50
34640;DHT22;22600;48.186;11.526;2023-06-14T00:21:44;25.60;44.90
34640;DHT22;22600;48.186;11.526;2023-06-14T00:24:10;25.20;44.80
34640;DHT22;22600;48.186;11.526;2023-06-14T00:26:36;25.20;45.20
34640;DHT22;22600;48.186;11.526;2023-06-14T00:29:02;25.20;45.40
34640;DHT22;22600;48.186;11.526;2023-06-14T00:31:27;25.30;45.60
34640;DHT22;22600;48.186;11.526;2023-06-14T00:33:53;25.30;45.70
34640;DHT22;22600;48.186;11.526;2023-06-14T00:36:18;25.20;45.70
34640;DHT22;22600;48.186;11.526;2023-06-14T00:38:44;25.30;45.90
34640;DHT22;22600;48.186;11.526;2023-06-14T00:41:09;25.20;45.80
34640;DHT22;22600;48.186;11.526;2023-06-14T00:43:35;25.30;46.00
34640;DHT22;22600;48.186;11.526;2023-06-14T00:46:00;25.30;46.10
34640;DHT22;22600;48.186;11.526;2023-06-14T00:48:26;25.20;46.00
34640;DHT22;22600;48.186;11.526;2023-06-14T00:50:51;25.30;46.10
34640;DHT22;22600;48.186;11.526;2023-06-14T00:53:18;25.20;46.00
34640;DHT22;22600;48.186;11.526;2023-06-14T00:55:44;25.20;46.00
34640;DHT22;22600;48.186;11.526;2023-06-14T00:58:10;25.30;46.10
34640;DHT22;22600;48.186;11.526;2023-06-14T01:00:36;25.30;46.20
34640;DHT22;22600;48.186;11.526;2023-06-14T01:03:01;25.20;46.00
34640;DHT22;22600;48.186;11.526;2023-06-14T01:05:27;25.20;46.00
34640;DHT22;22600;48.186;11.526;2023-06-14T01:13:07;25.20;45.90
34640;DHT22;22600;48.186;11.526;2023-06-14T01:15:36;25.20;45.90
34640;DHT22;22600;48.186;11.526;2023-06-14T01:18:02;25.30;45.90
34640;DHT22;22600;48.186;11.526;2023-06-14T01:20:31;25.20;46.00
34640;DHT22;22600;48.186;11.526;2023-06-14T01:22:57;25.30;46.10
34640;DHT22;22600;48.186;11.526;2023-06-14T01:25:23;25.30;46.10
34640;DHT22;22600;48.186;11.526;2023-06-14T01:27:52;25.20;46.10
34640;DHT22;22600;48.186;11.526;2023-06-14T01:30:18;25.20;46.00
34640;DHT22;22600;48.186;11.526;2023-06-14T01:32:45;25.20;46.00
34640;DHT22;22600;48.186;11.526;2023-06-14T01:35:10;25.30;46.10
34640;DHT22;22600;48.186;11.526;2023-06-14T01:37:36;25.20;46.10
34640;DHT22;22600;48.186;11.526;2023-06-14T01:40:03;25.30;46.30
34640;DHT22;22600;48.186;11.526;2023-06-14T01:42:29;25.30;46.30
34640;DHT22;22600;48.186;11.526;2023-06-14T01:44:55;25.20;46.20
34640;DHT22;22600;48.186;11.526;2023-06-14T01:47:21;25.20;46.20
34640;DHT22;22600;48.186;11.526;2023-06-14T01:49:47;25.20;46.30
34640;DHT22;22600;48.186;11.526;2023-06-14T01:52:12;25.20;46.30
34640;DHT22;22600;48.186;11.526;2023-06-14T01:54:38;25.20;46.30
34640;DHT22;22600;48.186;11.526;2023-06-14T01:57:08;25.30;46.40
34640;DHT22;22600;48.186;11.526;2023-06-14T01:59:33;25.20;46.30
34640;DHT22;22600;48.186;11.526;2023-06-14T02:02:01;25.30;46.40
34640;DHT22;22600;48.186;11.526;2023-06-14T02:04:26;25.30;47.00
34640;DHT22;22600;48.186;11.526;2023-06-14T02:06:52;25.20;46.30
34640;DHT22;22600;48.186;11.526;2023-06-14T02:09:17;25.30;46.40
34640;DHT22;22600;48.186;11.526;2023-06-14T02:11:43;25.30;46.40
34640;DHT22;22600;48.186;11.526;2023-06-14T02:14:08;25.30;46.50
34640;DHT22;22600;48.186;11.526;2023-06-14T02:16:37;25.20;46.50
34640;DHT22;22600;48.186;11.526;2023-06-14T02:19:04;25.30;46.50
34640;DHT22;22600;48.186;11.526;2023-06-14T02:21:29;28.60;48.60
34640;DHT22;22600;48.186;11.526;2023-06-14T02:23:55;25.10;46.40
34640;DHT22;22600;48.186;11.526;2023-06-14T02:26:21;25.20;46.50
34640;DHT22;22600;48.186;11.526;2023-06-14T02:28:48;25.30;46.60
34640;DHT22;22600;48.186;11.526;2023-06-14T02:31:13;25.30;46.50
34640;DHT22;22600;48.186;11.526;2023-06-14T02:33:39;25.20;46.40
34640;DHT22;22600;48.186;11.526;2023-06-14T02:36:05;25.20;46.50
34640;DHT22;22600;48.186;11.526;2023-06-14T02:38:31;25.30;46.50
34640;DHT22;22600;48.186;11.526;2023-06-14T02:40:57;25.20;46.40
34640;DHT22;22600;48.186;11.526;2023-06-14T02:43:22;25.30;46.50
34640;DHT22;22600;48.186;11.526;2023-06-14T02:45:48;25.20;46.30
34640;DHT22;22600;48.186;11.526;2023-06-14T02:48:13;25.30;46.30
34640;DHT22;22600;48.186;11.526;2023-06-14T02:50:38;25.30;46.30
34640;DHT22;22600;48.186;11.526;2023-06-14T02:53:04;25.20;46.30
34640;DHT22;22600;48.186;11.526;2023-06-14T02:55:30;25.20;46.20
34640;DHT22;22600;48.186;11.526;2023-06-14T02:57:55;25.10;46.10
34640;DHT22;22600;48.186;11.526;2023-06-14T03:00:21;25.20;46.40
34640;DHT22;22600;48.186;11.526;2023-06-14T03:02:46;25.20;46.40
34640;DHT22;22600;48.186;11.526;2023-06-14T03:05:12;25.20;46.50
34640;DHT22;22600;48.186;11.526;2023-06-14T03:07:38;25.20;46.70
34640;DHT22;22600;48.186;11.526;2023-06-14T03:10:07;25.30;46.70
34640;DHT22;22600;48.186;11.526;2023-06-14T03:12:33;25.20;46.60
34640;DHT22;22600;48.186;11.526;2023-06-14T03:14:58;25.20;46.60
34640;DHT22;22600;48.186;11.526;2023-06-14T03:17:29;25.20;46.50
34640;DHT22;22600;48.186;11.526;2023-06-14T03:19:59;25.20;46.30
34640;DHT22;22600;48.186;11.526;2023-06-14T03:22:24;25.20;45.90
34640;DHT22;22600;48.186;11.526;2023-06-14T03:24:51;25.20;45.60
34640;DHT22;22600;48.186;11.526;2023-06-14T03:27:17;25.20;45.80
34640;DHT22;22600;48.186;11.526;2023-06-14T03:29:43;25.20;44.90
34640;DHT22;22600;48.186;11.526;2023-06-14T03:32:09;25.20;44.50
34640;DHT22;22600;48.186;11.526;2023-06-14T03:34:34;25.20;44.30
34640;DHT22;22600;48.186;11.526;2023-06-14T03:37:00;25.10;44.10
34640;DHT22;22600;48.186;11.526;2023-06-14T03:39:26;25.20;44.10
34640;DHT22;22600;48.186;11.526;2023-06-14T03:41:51;25.20;44.00
34640;DHT22;22600;48.186;11.526;2023-06-14T03:44:17;25.20;44.00
34640;DHT22;22600;48.186;11.526;2023-06-14T03:46:46;27.40;45.30
34640;DHT22;22600;48.186;11.526;2023-06-14T03:49:12;25.20;43.80
34640;DHT22;22600;48.186;11.526;2023-06-14T03:51:37;25.20;43.70
34640;DHT22;22600;48.186;11.526;2023-06-14T03:54:03;25.20;43.60
34640;DHT22;22600;48.186;11.526;2023-06-14T03:56:28;25.20;43.50
34640;DHT22;22600;48.186;11.526;2023-06-14T03:58:54;25.10;43.20
34640;DHT22;22600;48.186;11.526;2023-06-14T04:01:20;25.10;43.30
34640;DHT22;22600;48.186;11.526;2023-06-14T04:03:46;25.10;43.40
34640;DHT22;22600;48.186;11.526;2023-06-14T04:06:11;25.20;43.40
34640;DHT22;22600;48.186;11.526;2023-06-14T04:08:37;25.10;43.40
34640;DHT22;22600;48.186;11.526;2023-06-14T04:11:04;25.20;43.20
34640;DHT22;22600;48.186;11.526;2023-06-14T04:13:30;25.10;42.80
34640;DHT22;22600;48.186;11.526;2023-06-14T04:15:56;25.10;42.70
34640;DHT22;22600;48.186;11.526;2023-06-14T04:18:22;25.20;42.60
34640;DHT22;22600;48.186;11.526;2023-06-14T04:20:47;25.10;42.50
34640;DHT22;22600;48.186;11.526;2023-06-14T04:23:13;25.10;42.60
34640;DHT22;22600;48.186;11.526;2023-06-14T04:25:39;25.20;42.60
34640;DHT22;22600;48.186;11.526;2023-06-14T04:28:05;25.20;42.60
34640;DHT22;22600;48.186;11.526;2023-06-14T04:30:34;25.10;42.60
34640;DHT22;22600;48.186;11.526;2023-06-14T04:33:01;25.10;42.50
34640;DHT22;22600;48.186;11.526;2023-06-14T04:35:31;25.20;42.60
34640;DHT22;22600;48.186;11.526;2023-06-14T04:37:57;25.20;42.60
34640;DHT22;22600;48.186;11.526;2023-06-14T04:40:23;25.20;42.60
34640;DHT22;22600;48.186;11.526;2023-06-14T04:42:49;25.20;42.60
34640;DHT22;22600;48.186;11.526;2023-06-14T04:45:16;25.20;42.50
34640;DHT22;22600;48.186;11.526;2023-06-14T04:47:42;25.20;42.50
34640;DHT22;22600;48.186;11.526;2023-06-14T04:50:08;25.20;42.40
34640;DHT22;22600;48.186;11.526;2023-06-14T04:52:35;25.20;42.30
34640;DHT22;22600;48.186;11.526;2023-06-14T04:55:00;28.30;44.20
34640;DHT22;22600;48.186;11.526;2023-06-14T04:57:27;25.20;42.10
34640;DHT22;22600;48.186;11.526;2023-06-14T04:59:52;25.20;42.10
34640;DHT22;22600;48.186;11.526;2023-06-14T05:02:23;25.20;42.10
34640;DHT22;22600;48.186;11.526;2023-06-14T05:04:49;25.20;42.00
34640;DHT22;22600;48.186;11.526;2023-06-14T05:07:15;25.30;42.00
34640;DHT22;22600;48.186;11.526;2023-06-14T05:09:40;25.20;41.90
34640;DHT22;22600;48.186;11.526;2023-06-14T05:12:06;25.30;42.00
34640;DHT22;22600;48.186;11.526;2023-06-14T05:14:33;25.30;41.90
34640;DHT22;22600;48.186;11.526;2023-06-14T05:16:59;25.30;41.90
34640;DHT22;22600;48.186;11.526;2023-06-14T05:19:24;25.40;41.80
34640;DHT22;22600;48.186;11.526;2023-06-14T05:21:50;25.30;41.60
34640;DHT22;22600;48.186;11.526;2023-06-14T05:24:16;25.30;41.50
34640;DHT22;22600;48.186;11.526;2023-06-14T05:26:45;25.30;41.40
34640;DHT22;22600;48.186;11.526;2023-06-14T05:29:10;25.30;41.30
34640;DHT22;22600;48.186;11.526;2023-06-14T05:31:36;25.30;41.20
34640;DHT22;22600;48.186;11.526;2023-06-14T05:34:02;25.30;40.90
34640;DHT22;22600;48.186;11.526;2023-06-14T05:36:27;25.30;40.80
34640;DHT22;22600;48.186;11.526;2023-06-14T05:38:53;25.40;40.70
34640;DHT22;22600;48.186;11.526;2023-06-14T05:41:25;25.40;40.60
34640;DHT22;22600;48.186;11.526;2023-06-14T05:43:51;25.40;40.40
34640;DHT22;22600;48.186;11.526;2023-06-14T05:46:17;25.40;40.40
34640;DHT22;22600;48.186;11.526;2023-06-14T05:48:50;25.40;40.20
34640;DHT22;22600;48.186;11.526;2023-06-14T05:51:15;25.50;40.30
34640;DHT22;22600;48.186;11.526;2023-06-14T05:53:53;25.40;40.10
34640;DHT22;22600;48.186;11.526;2023-06-14T05:56:18;25.40;39.80
34640;DHT22;22600;48.186;11.526;2023-06-14T05:58:44;25.40;39.70
34640;DHT22;22600;48.186;11.526;2023-06-14T06:01:10;25.50;39.50
34640;DHT22;22600;48.186;11.526;2023-06-14T06:03:36;26.30;39.90
34640;DHT22;22600;48.186;11.526;2023-06-14T06:06:02;25.50;39.20
34640;DHT22;22600;48.186;11.526;2023-06-14T06:08:28;25.50;39.10
34640;DHT22;22600;48.186;11.526;2023-06-14T06:10:54;25.50;39.00
34640;DHT22;22600;48.186;11.526;2023-06-14T06:13:19;25.50;38.90
34640;DHT22;22600;48.186;11.526;2023-06-14T06:15:45;25.50;38.80
34640;DHT22;22600;48.186;11.526;2023-06-14T06:18:11;25.50;38.80
34640;DHT22;22600;48.186;11.526;2023-06-14T06:20:36;25.50;38.60
34640;DHT22;22600;48.186;11.526;2023-06-14T06:23:02;25.50;38.50
34640;DHT22;22600;48.186;11.526;2023-06-14T06:25:27;25.50;38.40
34640;DHT22;22600;48.186;11.526;2023-06-14T06:27:53;25.50;38.30
34640;DHT22;22600;48.186;11.526;2023-06-14T06:30:19;25.60;38.30
34640;DHT22;22600;48.186;11.526;2023-06-14T06:32:45;25.50;38.20
34640;DHT22;22600;48.186;11.526;2023-06-14T06:35:11;25.60;38.30
34640;DHT22;22600;48.186;11.526;2023-06-14T06:37:37;25.80;38.50
34640;DHT22;22600;48.186;11.526;2023-06-14T06:40:03;25.60;38.40
34640;DHT22;22600;48.186;11.526;2023-06-14T06:42:31;25.60;38.30
34640;DHT22;22600;48.186;11.526;2023-06-14T06:44:56;25.60;38.40
34640;DHT22;22600;48.186;11.526;2023-06-14T06:47:22;25.60;38.40
34640;DHT22;22600;48.186;11.526;2023-06-14T06:49:47;25.60;38.50
34640;DHT22;22600;48.186;11.526;2023-06-14T06:52:13;25.70;38.60
34640;DHT22;22600;48.186;11.526;2023-06-14T06:54:38;25.70;38.70
34640;DHT22;22600;48.186;11.526;2023-06-14T06:57:04;25.70;38.80
34640;DHT22;22600;48.186;11.526;2023-06-14T06:59:31;25.70;38.80
34640;DHT22;22600;48.186;11.526;2023-06-14T07:01:56;25.70;38.90
34640;DHT22;22600;48.186;11.526;2023-06-14T07:04:22;25.70;38.90
34640;DHT22;22600;48.186;11.526;2023-06-14T07:06:47;25.70;38.90
34640;DHT22;22600;48.186;11.526;2023-06-14T07:09:13;25.70;39.00
34640;DHT22;22600;48.186;11.526;2023-06-14T07:11:40;25.80;39.10
34640;DHT22;22600;48.186;11.526;2023-06-14T07:14:05;25.70;39.70
34640;DHT22;22600;48.186;11.526;2023-06-14T07:16:31;25.80;39.30
34640;DHT22;22600;48.186;11.526;2023-06-14T07:18:57;25.70;39.30
34640;DHT22;22600;48.186;11.526;2023-06-14T07:21:22;25.70;39.30
34640;DHT22;22600;48.186;11.526;2023-06-14T07:23:48;25.80;39.40
34640;DHT22;22600;48.186;11.526;2023-06-14T07:26:13;25.80;39.50
34640;DHT22;22600;48.186;11.526;2023-06-14T07:28:38;27.30;40.40
34640;DHT22;22600;48.186;11.526;2023-06-14T07:31:04;25.80;39.60
34640;DHT22;22600;48.186;11.526;2023-06-14T07:33:29;25.80;39.60
34640;DHT22;22600;48.186;11.526;2023-06-14T07:35:55;25.80;39.60
34640;DHT22;22600;48.186;11.526;2023-06-14T07:38:21;25.80;39.70
34640;DHT22;22600;48.186;11.526;2023-06-14T07:40:46;25.80;39.70
34640;DHT22;22600;48.186;11.526;2023-06-14T07:43:12;25.80;39.70
34640;DHT22;22600;48.186;11.526;2023-06-14T07:45:37;25.80;39.70
34640;DHT22;22600;48.186;11.526;2023-06-14T07:48:03;25.90;39.90
34640;DHT22;22600;48.186;11.526;2023-06-14T07:50:29;25.90;39.90
34640;DHT22;22600;48.186;11.526;2023-06-14T07:52:54;25.90;39.90
34640;DHT22;22600;48.186;11.526;2023-06-14T07:55:20;25.90;39.90
34640;DHT22;22600;48.186;11.526;2023-06-14T07:57:45;25.90;39.90
34640;DHT22;22600;48.186;11.526;2023-06-14T08:00:11;25.90;40.00
34640;DHT22;22600;48.186;11.526;2023-06-14T08:02:43;25.90;40.00
34640;DHT22;22600;48.186;11.526;2023-06-14T08:05:09;25.90;40.00
34640;DHT22;22600;48.186;11.526;2023-06-14T08:07:36;25.90;40.00
34640;DHT22;22600;48.186;11.526;2023-06-14T08:10:02;25.90;40.00
34640;DHT22;22600;48.186;11.526;2023-06-14T08:12:27;25.90;40.10
34640;DHT22;22600;48.186;11.526;2023-06-14T08:14:53;25.90;40.10
34640;DHT22;22600;48.186;11.526;2023-06-14T08:17:18;25.90;40.10
34640;DHT22;22600;48.186;11.526;2023-06-14T08:19:44;25.90;40.10
34640;DHT22;22600;48.186;11.526;2023-06-14T08:22:09;25.90;40.10
34640;DHT22;22600;48.186;11.526;2023-06-14T08:24:36;25.90;40.10
34640;DHT22;22600;48.186;11.526;2023-06-14T08:27:02;25.90;40.10
34640;DHT22;22600;48.186;11.526;2023-06-14T08:29:28;26.00;40.20
34640;DHT22;22600;48.186;11.526;2023-06-14T08:31:56;25.90;40.80
34640;DHT22;22600;48.186;11.526;2023-06-14T08:34:22;26.00;40.30
34640;DHT22;22600;48.186;11.526;2023-06-14T08:36:51;25.90;40.20
34640;DHT22;22600;48.186;11.526;2023-06-14T08:39:17;25.90;40.20
34640;DHT22;22600;48.186;11.526;2023-06-14T08:41:43;26.00;40.30
34640;DHT22;22600;48.186;11.526;2023-06-14T08:44:11;25.90;40.20
34640;DHT22;22600;48.186;11.526;2023-06-14T08:46:36;25.90;40.20
34640;DHT22;22600;48.186;11.526;2023-06-14T08:49:02;26.00;40.30
34640;DHT22;22600;48.186;11.526;2023-06-14T08:51:30;26.00;40.30
34640;DHT22;22600;48.186;11.526;2023-06-14T08:53:59;26.00;40.30
34640;DHT22;22600;48.186;11.526;2023-06-14T08:56:29;25.90;40.20
34640;DHT22;22600;48.186;11.526;2023-06-14T08:58:56;25.90;40.30
34640;DHT22;22600;48.186;11.526;2023-06-14T09:01:22;26.00;40.30
34640;DHT22;22600;48.186;11.526;2023-06-14T09:03:48;25.90;40.30
34640;DHT22;22600;48.186;11.526;2023-06-14T09:06:14;25.90;40.30
34640;DHT22;22600;48.186;11.526;2023-06-14T09:08:43;26.00;40.30
34640;DHT22;22600;48.186;11.526;2023-06-14T09:11:12;26.00;40.30
34640;DHT22;22600;48.186;11.526;2023-06-14T09:13:38;25.90;40.30
34640;DHT22;22600;48.186;11.526;2023-06-14T09:16:04;25.90;40.30
34640;DHT22;22600;48.186;11.526;2023-06-14T09:18:37;25.90;40.30
34640;DHT22;22600;48.186;11.526;2023-06-14T09:21:05;25.90;40.30
34640;DHT22;22600;48.186;11.526;2023-06-14T09:23:33;25.90;40.30
34640;DHT22;22600;48.186;11.526;2023-06-14T09:25:58;25.90;40.30
34640;DHT22;22600;48.186;11.526;2023-06-14T09:28:26;25.90;40.30
34640;DHT22;22600;48.186;11.526;2023-06-14T09:30:52;26.00;40.20
34640;DHT22;22600;48.186;11.526;2023-06-14T09:33:17;25.90;40.10
34640;DHT22;22600;48.186;11.526;2023-06-14T09:35:45;25.90;40.10
34640;DHT22;22600;48.186;11.526;2023-06-14T09:38:10;25.90;40.20
34640;DHT22;22600;48.186;11.526;2023-06-14T09:40:36;25.90;40.20
34640;DHT22;22600;48.186;11.526;2023-06-14T09:43:05;25.90;40.20
34640;DHT22;22600;48.186;11.526;2023-06-14T09:45:32;26.30;40.40
34640;DHT22;22600;48.186;11.526;2023-06-14T09:47:58;25.90;40.10
34640;DHT22;22600;48.186;11.526;2023-06-14T09:50:23;25.90;40.10
34640;DHT22;22600;48.186;11.526;2023-06-14T09:52:49;25.90;40.10
34640;DHT22;22600;48.186;11.526;2023-06-14T09:55:17;25.90;40.10
34640;DHT22;22600;48.186;11.526;2023-06-14T09:57:44;25.90;40.10
34640;DHT22;22600;48.186;11.526;2023-06-14T10:00:11;25.90;40.10
34640;DHT22;22600;48.186;11.526;2023-06-14T10:02:38;25.90;40.10
34640;DHT22;22600;48.186;11.526;2023-06-14T10:05:05;25.90;40.10
34640;DHT22;22600;48.186;11.526;2023-06-14T10:07:44;25.90;40.10
34640;DHT22;22600;48.186;11.526;2023-06-14T10:10:13;25.90;40.20
34640;DHT22;22600;48.186;11.526;2023-06-14T10:12:38;25.90;40.10
34640;DHT22;22600;48.186;11.526;2023-06-14T10:15:05;25.90;40.10
34640;DHT22;22600;48.186;11.526;2023-06-14T10:17:39;25.90;40.10
34640;DHT22;22600;48.186;11.526;2023-06-14T10:22:47;25.80;40.10
34640;DHT22;22600;48.186;11.526;2023-06-14T10:25:27;25.80;40.20
34640;DHT22;22600;48.186;11.526;2023-06-14T10:28:02;25.80;40.20
34640;DHT22;22600;48.186;11.526;2023-06-14T10:30:27;25.70;40.20
34640;DHT22;22600;48.186;11.526;2023-06-14T10:33:05;25.80;40.20
34640;DHT22;22600;48.186;11.526;2023-06-14T10:35:32;25.80;40.30
34640;DHT22;22600;48.186;11.526;2023-06-14T10:38:11;25.80;40.30
34640;DHT22;22600;48.186;11.526;2023-06-14T10:40:37;25.70;40.00
34640;DHT22;22600;48.186;11.526;2023-06-14T10:43:22;25.80;39.70
34640;DHT22;22600;48.186;11.526;2023-06-14T10:48:33;25.70;39.30
34640;DHT22;22600;48.186;11.526;2023-06-14T10:51:02;25.70;38.90
34640;DHT22;22600;48.186;11.526;2023-06-14T10:53:27;25.70;38.80
34640;DHT22;22600;48.186;11.526;2023-06-14T10:55:54;25.70;38.50
34640;DHT22;22600;48.186;11.526;2023-06-14T10:58:21;25.70;37.80
34640;DHT22;22600;48.186;11.526;2023-06-14T11:00:46;25.70;37.60
34640;DHT22;22600;48.186;11.526;2023-06-14T11:03:19;25.70;37.60
34640;DHT22;22600;48.186;11.526;2023-06-14T11:05:50;25.60;37.70
34640;DHT22;22600;48.186;11.526;2023-06-14T11:10:43;25.60;37.80
34640;DHT22;22600;48.186;11.526;2023-06-14T11:13:10;25.50;37.80
34640;DHT22;22600;48.186;11.526;2023-06-14T11:15:36;25.60;37.80
34640;DHT22;22600;48.186;11.526;2023-06-14T11:18:03;25.60;37.80
34640;DHT22;22600;48.186;11.526;2023-06-14T11:20:33;25.60;37.80
34640;DHT22;22600;48.186;11.526;2023-06-14T11:22:58;25.70;37.90
34640;DHT22;22600;48.186;11.526;2023-06-14T11:25:24;25.50;38.00
34640;DHT22;22600;48.186;11.526;2023-06-14T11:27:50;25.60;38.00
34640;DHT22;22600;48.186;11.526;2023-06-14T11:30:16;25.60;38.10
34640;DHT22;22600;48.186;11.526;2023-06-14T11:32:41;25.60;38.20
34640;DHT22;22600;48.186;11.526;2023-06-14T11:35:07;25.50;38.20
34640;DHT22;22600;48.186;11.526;2023-06-14T11:37:34;25.50;38.40
34640;DHT22;22600;48.186;11.526;2023-06-14T11:40:02;25.50;38.50
34640;DHT22;22600;48.186;11.526;2023-06-14T11:42:33;25.50;38.50
34640;DHT22;22600;48.186;11.526;2023-06-14T11:44:59;25.50;38.60
34640;DHT22;22600;48.186;11.526;2023-06-14T11:47:24;25.50;38.70
34640;DHT22;22600;48.186;11.526;2023-06-14T11:49:57;25.50;38.70
34640;DHT22;22600;48.186;11.526;2023-06-14T11:52:23;25.50;38.70
34640;DHT22;22600;48.186;11.526;2023-06-14T11:54:48;25.50;38.80
34640;DHT22;22600;48.186;11.526;2023-06-14T11:57:14;25.60;38.90
34640;DHT22;22600;48.186;11.526;2023-06-14T11:59:40;25.40;38.90
34640;DHT22;22600;48.186;11.526;2023-06-14T12:02:06;25.50;39.10
34640;DHT22;22600;48.186;11.526;2023-06-14T12:04:32;25.40;39.00
34640;DHT22;22600;48.186;11.526;2023-06-14T12:07:08;25.50;39.20
34640;DHT22;22600;48.186;11.526;2023-06-14T12:09:36;25.40;39.10
34640;DHT22;22600;48.186;11.526;2023-06-14T12:12:02;25.40;39.10
34640;DHT22;22600;48.186;11.526;2023-06-14T12:14:29;25.50;39.30
34640;DHT22;22600;48.186;11.526;2023-06-14T12:17:03;25.50;39.40
34640;DHT22;22600;48.186;11.526;2023-06-14T12:19:28;25.40;39.50
34640;DHT22;22600;48.186;11.526;2023-06-14T12:21:54;25.30;39.50
34640;DHT22;22600;48.186;11.526;2023-06-14T12:24:19;25.40;39.70
34640;DHT22;22600;48.186;11.526;2023-06-14T12:26:45;25.40;39.60
34640;DHT22;22600;48.186;11.526;2023-06-14T12:29:12;25.40;39.60
34640;DHT22;22600;48.186;11.526;2023-06-14T12:31:37;25.40;39.70
34640;DHT22;22600;48.186;11.526;2023-06-14T12:34:03;25.40;39.60
34640;DHT22;22600;48.186;11.526;2023-06-14T12:36:28;25.40;39.70
34640;DHT22;22600;48.186;11.526;2023-06-14T12:38:54;25.40;39.80
34640;DHT22;22600;48.186;11.526;2023-06-14T12:41:20;25.40;39.90
34640;DHT22;22600;48.186;11.526;2023-06-14T12:43:47;25.40;40.30
34640;DHT22;22600;48.186;11.526;2023-06-14T12:46:13;25.40;40.00
34640;DHT22;22600;48.186;11.526;2023-06-14T12:48:38;25.40;40.00
34640;DHT22;22600;48.186;11.526;2023-06-14T12:51:03;25.50;40.10
34640;DHT22;22600;48.186;11.526;2023-06-14T12:53:29;25.40;40.10
34640;DHT22;22600;48.186;11.526;2023-06-14T12:55:54;25.40;40.10
34640;DHT22;22600;48.186;11.526;2023-06-14T12:58:20;25.40;40.10
34640;DHT22;22600;48.186;11.526;2023-06-14T13:00:46;25.40;40.20
34640;DHT22;22600;48.186;11.526;2023-06-14T13:03:11;25.40;40.10
34640;DHT22;22600;48.186;11.526;2023-06-14T13:05:37;25.40;40.80
34640;DHT22;22600;48.186;11.526;2023-06-14T13:08:06;25.40;40.20
34640;DHT22;22600;48.186;11.526;2023-06-14T13:10:33;25.40;40.20
34640;DHT22;22600;48.186;11.526;2023-06-14T13:12:59;25.30;40.10
34640;DHT22;22600;48.186;11.526;2023-06-14T13:15:25;25.40;40.10
34640;DHT22;22600;48.186;11.526;2023-06-14T13:17:51;25.40;40.00
34640;DHT22;22600;48.186;11.526;2023-06-14T13:20:16;25.40;40.10
34640;DHT22;22600;48.186;11.526;2023-06-14T13:22:42;25.40;40.10
34640;DHT22;22600;48.186;11.526;2023-06-14T13:25:07;25.40;40.00
34640;DHT22;22600;48.186;11.526;2023-06-14T13:27:33;25.40;40.00
34640;DHT22;22600;48.186;11.526;2023-06-14T13:29:58;25.40;40.10
34640;DHT22;22600;48.186;11.526;2023-06-14T13:32:24;25.50;40.20
34640;DHT22;22600;48.186;11.526;2023-06-14T13:34:49;25.40;40.10
34640;DHT22;22600;48.186;11.526;2023-06-14T13:37:15;25.40;40.00
34640;DHT22;22600;48.186;11.526;2023-06-14T13:39:41;25.40;40.10
34640;DHT22;22600;48.186;11.526;2023-06-14T13:42:07;25.40;40.20
34640;DHT22;22600;48.186;11.526;2023-06-14T13:44:32;25.30;40.30
34640;DHT22;22600;48.186;11.526;2023-06-14T13:46:58;25.30;40.30
34640;DHT22;22600;48.186;11.526;2023-06-14T13:49:23;24.00;39.70
34640;DHT22;22600;48.186;11.526;2023-06-14T13:51:49;25.30;40.40
34640;DHT22;22600;48.186;11.526;2023-06-14T13:54:14;25.40;40.40
34640;DHT22;22600;48.186;11.526;2023-06-14T13:56:40;25.30;40.40
34640;DHT22;22600;48.186;11.526;2023-06-14T13:59:06;28.30;42.30
34640;DHT22;22600;48.186;11.526;2023-06-14T14:01:31;25.40;40.50
34640;DHT22;22600;48.186;11.526;2023-06-14T14:03:57;25.40;40.50
34640;DHT22;22600;48.186;11.526;2023-06-14T14:06:23;25.40;40.40
34640;DHT22;22600;48.186;11.526;2023-06-14T14:08:49;25.30;40.30
34640;DHT22;22600;48.186;11.526;2023-06-14T14:11:15;25.40;40.40
34640;DHT22;22600;48.186;11.526;2023-06-14T14:13:41;25.30;40.30
34640;DHT22;22600;48.186;11.526;2023-06-14T14:16:07;27.30;41.50
34640;DHT22;22600;48.186;11.526;2023-06-14T14:18:33;25.30;40.20
34640;DHT22;22600;48.186;11.526;2023-06-14T14:20:58;25.30;40.30
34640;DHT22;22600;48.186;11.526;2023-06-14T14:23:25;25.40;40.40
34640;DHT22;22600;48.186;11.526;2023-06-14T14:25:51;25.30;40.30
34640;DHT22;22600;48.186;11.526;2023-06-14T14:28:16;25.30;40.40
34640;DHT22;22600;48.186;11.526;2023-06-14T14:30:44;25.40;40.40
34640;DHT22;22600;48.186;11.526;2023-06-14T14:33:10;27.10;41.50
34640;DHT22;22600;48.186;11.526;2023-06-14T14:35:44;25.30;40.30
34640;DHT22;22600;48.186;11.526;2023-06-14T14:38:13;25.30;40.30
34640;DHT22;22600;48.186;11.526;2023-06-14T14:40:39;25.40;40.40
34640;DHT22;22600;48.186;11.526;2023-06-14T14:43:05;25.30;40.30
34640;DHT22;22600;48.186;11.526;2023-06-14T14:45:30;25.30;40.30
34640;DHT22;22600;48.186;11.526;2023-06-14T14:47:56;25.30;40.30
34640;DHT22;22600;48.186;11.526;2023-06-14T14:50:22;25.40;40.40
34640;DHT22;22600;48.186;11.526;2023-06-14T14:52:47;25.30;40.30
34640;DHT22;22600;48.186;11.526;2023-06-14T14:55:13;25.30;40.90
34640;DHT22;22600;48.186;11.526;2023-06-14T14:57:38;25.30;40.30
34640;DHT22;22600;48.186;11.526;2023-06-14T15:00:04;25.30;40.30
34640;DHT22;22600;48.186;11.526;2023-06-14T15:02:30;25.30;40.30
34640;DHT22;22600;48.186;11.526;2023-06-14T15:04:56;25.30;40.30
34640;DHT22;22600;48.186;11.526;2023-06-14T15:07:30;25.30;40.30
34640;DHT22;22600;48.186;11.526;2023-06-14T15:09:56;25.30;40.30
34640;DHT22;22600;48.186;11.526;2023-06-14T15:12:22;25.30;40.30
34640;DHT22;22600;48.186;11.526;2023-06-14T15:14:51;25.30;40.30
34640;DHT22;22600;48.186;11.526;2023-06-14T15:17:17;25.30;40.40
34640;DHT22;22600;48.186;11.526;2023-06-14T15:19:46;25.30;40.40
34640;DHT22;22600;48.186;11.526;2023-06-14T15:22:12;25.30;41.00
34640;DHT22;22600;48.186;11.526;2023-06-14T15:24:40;25.50;40.40